createdAt,value
2018-07-14T00:02:02.840Z,101371.41
2018-07-14T00:04:31.510Z,101369.00
2018-07-14T00:07:00.173Z,101379.09
2018-07-14T00:09:28.950Z,101373.98
2018-07-14T00:11:57.599Z,101373.98
2018-07-14T00:14:26.633Z,101376.30
2018-07-14T00:16:55.788Z,101378.34
2018-07-14T00:19:24.444Z,101378.41
2018-07-14T00:21:53.425Z,101381.63
2018-07-14T00:24:23.548Z,101378.00
2018-07-14T00:26:52.815Z,101374.07
2018-07-14T00:29:21.469Z,101371.64
2018-07-14T00:31:50.145Z,101373.39
2018-07-14T00:34:18.801Z,101369.09
2018-07-14T00:36:47.485Z,101371.05
2018-07-14T00:39:16.114Z,101376.03
2018-07-14T00:41:45.136Z,101376.92
2018-07-14T00:44:13.849Z,101379.11
2018-07-14T00:46:43.169Z,101380.98
2018-07-14T00:49:12.392Z,101382.06
2018-07-14T00:51:41.556Z,101375.73
2018-07-14T00:54:10.168Z,101380.07
2018-07-14T00:56:38.861Z,101388.93
2018-07-14T00:59:07.843Z,101389.69
2018-07-14T01:01:36.907Z,101386.73
2018-07-14T01:04:05.569Z,101389.69
2018-07-14T01:06:34.338Z,101392.87
2018-07-14T01:09:03.184Z,101393.45
2018-07-14T01:11:32.134Z,101394.08
2018-07-14T01:14:01.039Z,101393.20
2018-07-14T01:16:30.000Z,101393.86
2018-07-14T01:18:58.620Z,101398.75
2018-07-14T01:21:27.685Z,101396.42
2018-07-14T01:23:56.368Z,101400.05
2018-07-14T01:26:25.074Z,101402.30
2018-07-14T01:28:54.246Z,101403.23
2018-07-14T01:31:23.019Z,101401.14
2018-07-14T01:33:51.690Z,101400.06
2018-07-14T01:36:20.304Z,101405.79
2018-07-14T01:38:49.221Z,101401.00
2018-07-14T01:41:18.198Z,101406.09
2018-07-14T01:43:47.806Z,101403.39
2018-07-14T01:46:16.516Z,101393.92
2018-07-14T01:48:45.177Z,101399.80
2018-07-14T01:51:14.230Z,101396.02
2018-07-14T01:53:43.430Z,101403.84
2018-07-14T01:56:12.324Z,101392.78
2018-07-14T01:58:41.007Z,101398.44
2018-07-14T02:01:09.925Z,101394.80
2018-07-14T02:03:39.327Z,101395.12
2018-07-14T02:06:07.985Z,101397.20
2018-07-14T02:08:36.701Z,101398.70
2018-07-14T02:11:05.668Z,101392.98
2018-07-14T02:13:34.364Z,101395.95
2018-07-14T02:16:03.072Z,101391.41
2018-07-14T02:18:32.655Z,101394.75
2018-07-14T02:21:01.580Z,101389.66
2018-07-14T02:23:30.299Z,101390.91
2018-07-14T02:25:58.892Z,101388.97
2018-07-14T02:28:27.492Z,101395.73
2018-07-14T02:30:56.142Z,101391.36
2018-07-14T02:33:25.923Z,101397.50
2018-07-14T02:35:55.116Z,101401.03
2018-07-14T02:38:24.266Z,101399.00
2018-07-14T02:40:52.900Z,101403.92
2018-07-14T02:43:22.197Z,101406.08
2018-07-14T02:45:51.081Z,101399.66
2018-07-14T02:48:19.719Z,101400.70
2018-07-14T02:50:48.658Z,101408.81
2018-07-14T02:53:17.591Z,101405.52
2018-07-14T02:55:46.577Z,101409.69
2018-07-14T02:58:15.213Z,101415.23
2018-07-14T03:00:44.235Z,101419.59
2018-07-14T03:03:13.482Z,101421.36
2018-07-14T03:05:42.237Z,101419.59
2018-07-14T03:08:11.816Z,101418.09
2018-07-14T03:10:40.511Z,101414.14
2018-07-14T03:13:09.148Z,101414.24
2018-07-14T03:15:37.846Z,101415.48
2018-07-14T03:18:07.093Z,101414.45
2018-07-14T03:20:36.066Z,101421.31
2018-07-14T03:23:04.934Z,101420.58
2018-07-14T03:25:33.624Z,101419.95
2018-07-14T03:28:02.241Z,101419.23
2018-07-14T03:30:30.881Z,101423.36
2018-07-14T03:32:59.546Z,101418.61
2018-07-14T03:35:28.920Z,101417.26
2018-07-14T03:37:57.532Z,101414.58
2018-07-14T03:40:26.204Z,101420.81
2018-07-14T03:42:55.657Z,101419.16
2018-07-14T03:45:24.618Z,101413.13
2018-07-14T03:47:53.243Z,101412.29
2018-07-14T03:50:21.850Z,101414.67
2018-07-14T03:52:50.779Z,101415.33
2018-07-14T03:55:19.435Z,101415.33
2018-07-14T03:57:48.114Z,101416.70
2018-07-14T04:00:16.809Z,101417.53
2018-07-14T04:02:45.771Z,101419.30
2018-07-14T04:05:14.402Z,101415.16
2018-07-14T04:07:43.095Z,101424.30
2018-07-14T04:10:12.057Z,101428.67
2018-07-14T04:12:40.695Z,101427.21
2018-07-14T04:15:09.322Z,101424.71
2018-07-14T04:17:37.948Z,101431.39
2018-07-14T04:20:06.931Z,101426.70
2018-07-14T04:22:35.569Z,101430.23
2018-07-14T04:25:04.488Z,101437.20
2018-07-14T04:27:33.786Z,101442.39
2018-07-14T04:30:02.468Z,101436.36
2018-07-14T04:32:31.087Z,101430.65
2018-07-14T04:35:00.054Z,101435.34
2018-07-14T04:37:29.071Z,101433.36
2018-07-14T04:39:58.092Z,101439.08
2018-07-14T04:42:26.901Z,101438.77
2018-07-14T04:44:55.852Z,101441.88
2018-07-14T04:47:25.220Z,101442.71
2018-07-14T04:49:53.905Z,101440.33
2018-07-14T04:52:23.139Z,101439.17
2018-07-14T04:54:51.817Z,101442.09
2018-07-14T04:57:20.753Z,101443.75
2018-07-14T04:59:49.721Z,101442.80
2018-07-14T05:02:18.632Z,101441.56
2018-07-14T05:04:47.324Z,101439.88
2018-07-14T05:07:16.934Z,101436.25
2018-07-14T05:09:46.571Z,101439.36
2018-07-14T05:12:17.242Z,101438.14
2018-07-14T05:14:46.713Z,101442.81
2018-07-14T05:17:16.803Z,101444.59
2018-07-14T05:19:45.859Z,101447.59
2018-07-14T05:22:16.504Z,101444.45
2018-07-14T05:24:46.286Z,101447.67
2018-07-14T05:27:15.149Z,101446.43
2018-07-14T05:29:43.767Z,101442.38
2018-07-14T05:32:12.426Z,101440.20
2018-07-14T05:34:41.008Z,101448.50
2018-07-14T05:37:09.953Z,101436.53
2018-07-14T05:39:38.618Z,101437.27
2018-07-14T05:42:07.268Z,101444.73
2018-07-14T05:44:35.928Z,101438.09
2018-07-14T05:47:04.590Z,101442.25
2018-07-14T05:49:33.362Z,101453.23
2018-07-14T05:52:02.092Z,101450.41
2018-07-14T05:54:30.730Z,101450.70
2018-07-14T05:56:59.388Z,101456.10
2018-07-14T05:59:27.986Z,101459.22
2018-07-14T06:01:56.644Z,101469.21
2018-07-14T06:04:25.258Z,101467.83
2018-07-14T06:06:54.294Z,101466.35
2018-07-14T06:09:23.064Z,101473.87
2018-07-14T06:11:51.711Z,101472.66
2018-07-14T06:14:21.235Z,101475.44
2018-07-14T06:16:50.247Z,101469.72
2018-07-14T06:19:18.905Z,101479.18
2018-07-14T06:21:48.473Z,101475.23
2018-07-14T06:24:17.184Z,101487.09
2018-07-14T06:26:45.871Z,101479.80
2018-07-14T06:29:14.556Z,101484.86
2018-07-14T06:31:43.212Z,101474.63
2018-07-14T06:34:11.852Z,101474.22
2018-07-14T06:36:40.688Z,101483.05
2018-07-14T06:39:09.642Z,101482.96
2018-07-14T06:41:38.296Z,101480.70
2018-07-14T06:44:06.958Z,101487.67
2018-07-14T06:46:36.020Z,101496.45
2018-07-14T06:49:04.641Z,101497.85
2018-07-14T06:51:33.354Z,101502.63
2018-07-14T06:54:02.269Z,101507.29
2018-07-14T06:56:30.956Z,101503.42
2018-07-14T06:58:59.806Z,101506.72
2018-07-14T07:01:28.776Z,101504.26
2018-07-14T07:03:57.999Z,101510.84
2018-07-14T07:06:26.850Z,101508.22
2018-07-14T07:08:55.827Z,101514.63
2018-07-14T07:11:26.012Z,101505.47
2018-07-14T07:13:58.575Z,101500.80
2018-07-14T07:16:28.101Z,101503.98
2018-07-14T07:18:56.863Z,101504.02
2018-07-14T07:21:26.385Z,101496.91
2018-07-14T07:23:55.980Z,101502.80
2018-07-14T07:26:25.533Z,101501.45
2018-07-14T07:28:55.747Z,101501.56
2018-07-14T07:31:25.341Z,101506.47
2018-07-14T07:33:57.018Z,101509.84
2018-07-14T07:38:54.058Z,101513.50
2018-07-14T07:41:22.699Z,101517.65
2018-07-14T07:43:51.736Z,101517.52
2018-07-14T07:46:20.711Z,101515.56
2018-07-14T07:48:49.454Z,101514.14
2018-07-14T07:51:18.303Z,101520.28
2018-07-14T07:53:46.961Z,101513.88
2018-07-14T07:56:16.812Z,101515.00
2018-07-14T07:58:45.504Z,101517.31
2018-07-14T08:01:14.180Z,101506.95
2018-07-14T08:03:43.502Z,101508.47
2018-07-14T08:06:12.580Z,101511.70
2018-07-14T08:08:41.293Z,101507.42
2018-07-14T08:11:10.074Z,101508.58
2018-07-14T08:13:39.067Z,101509.39
2018-07-14T08:16:08.205Z,101517.47
2018-07-14T08:18:38.098Z,101514.38
2018-07-14T08:21:07.889Z,101511.93
2018-07-14T08:23:36.947Z,101518.77
2018-07-14T08:26:05.969Z,101510.98
2018-07-14T08:28:34.858Z,101521.56
2018-07-14T08:31:03.614Z,101516.88
2018-07-14T08:33:32.687Z,101514.77
2018-07-14T08:36:02.625Z,101517.13
2018-07-14T08:38:31.373Z,101515.66
2018-07-14T08:41:00.129Z,101520.69
2018-07-14T08:43:28.884Z,101519.03
2018-07-14T08:45:57.556Z,101518.19
2018-07-14T08:48:26.215Z,101516.91
2018-07-14T08:50:56.579Z,101525.37
2018-07-14T08:53:25.277Z,101525.91
2018-07-14T08:55:54.159Z,101522.30
2018-07-14T08:58:26.975Z,101522.02
2018-07-14T09:00:56.021Z,101521.13
2018-07-14T09:03:25.188Z,101521.34
2018-07-14T09:05:56.827Z,101518.11
2018-07-14T09:08:26.151Z,101523.09
2018-07-14T09:11:00.177Z,101523.03
2018-07-14T09:13:28.830Z,101518.58
2018-07-14T09:15:57.546Z,101518.41
2018-07-14T09:18:26.545Z,101525.55
2018-07-14T09:20:55.331Z,101518.01
2018-07-14T09:23:24.039Z,101523.31
2018-07-14T09:25:52.682Z,101538.75
2018-07-14T09:28:21.702Z,101537.09
2018-07-14T09:30:50.510Z,101536.70
2018-07-14T09:33:19.534Z,101532.03
2018-07-14T09:35:49.007Z,101533.67
2018-07-14T09:38:18.994Z,101531.05
2018-07-14T09:40:48.161Z,101530.52
2018-07-14T09:43:18.021Z,101528.69
2018-07-14T09:45:48.746Z,101527.11
2018-07-14T09:48:17.741Z,101528.28
2018-07-14T09:50:46.412Z,101528.25
2018-07-14T09:53:15.051Z,101532.50
2018-07-14T09:55:44.543Z,101535.76
2018-07-14T09:58:14.692Z,101525.50
2018-07-14T10:00:49.111Z,101527.02
2018-07-14T10:03:17.787Z,101525.36
2018-07-14T10:05:46.958Z,101525.34
2018-07-14T10:08:16.361Z,101527.56
2018-07-14T10:10:45.130Z,101523.69
2018-07-14T10:13:13.884Z,101518.39
2018-07-14T10:15:42.559Z,101523.00
2018-07-14T10:18:11.278Z,101522.92
2018-07-14T10:20:40.288Z,101522.56
2018-07-14T10:23:09.081Z,101529.73
2018-07-14T10:25:37.815Z,101525.97
2018-07-14T10:28:06.555Z,101525.73
2018-07-14T10:30:35.574Z,101522.70
2018-07-14T10:33:04.282Z,101521.75
2018-07-14T10:35:35.599Z,101514.25
2018-07-14T10:38:04.661Z,101515.21
2018-07-14T10:40:33.415Z,101517.34
2018-07-14T10:43:02.799Z,101509.59
2018-07-14T10:45:31.649Z,101507.25
2018-07-14T10:48:00.395Z,101503.81
2018-07-14T10:50:29.192Z,101500.91
2018-07-14T10:52:58.563Z,101504.77
2018-07-14T10:55:29.452Z,101503.25
2018-07-14T10:57:58.147Z,101503.33
2018-07-14T11:00:27.615Z,101507.52
2018-07-14T11:02:56.437Z,101502.39
2018-07-14T11:05:25.379Z,101508.81
2018-07-14T11:07:55.526Z,101498.50
2018-07-14T11:10:24.516Z,101500.86
2018-07-14T11:12:53.303Z,101503.66
2018-07-14T11:15:22.064Z,101501.46
2018-07-14T11:17:50.954Z,101499.45
2018-07-14T11:20:19.867Z,101494.33
2018-07-14T11:22:48.835Z,101494.53
2018-07-14T11:25:17.583Z,101491.48
2018-07-14T11:27:46.344Z,101492.45
2018-07-14T11:30:15.452Z,101491.79
2018-07-14T11:32:45.633Z,101496.45
2018-07-14T11:35:15.377Z,101490.42
2018-07-14T11:37:44.775Z,101494.02
2018-07-14T11:40:14.430Z,101493.00
2018-07-14T11:42:44.119Z,101497.57
2018-07-14T11:45:13.806Z,101495.70
2018-07-14T11:47:42.516Z,101486.87
2018-07-14T11:50:11.446Z,101490.20
2018-07-14T11:52:40.160Z,101488.86
2018-07-14T11:55:09.238Z,101487.87
2018-07-14T11:57:37.920Z,101482.28
2018-07-14T12:00:07.525Z,101481.75
2018-07-14T12:02:36.170Z,101479.08
2018-07-14T12:05:05.271Z,101469.89
2018-07-14T12:07:34.050Z,101471.07
2018-07-14T12:10:05.473Z,101466.75
2018-07-14T12:12:34.789Z,101469.12
2018-07-14T12:15:04.347Z,101459.00
2018-07-14T12:17:33.090Z,101453.69
2018-07-14T12:20:02.031Z,101452.64
2018-07-14T12:22:30.846Z,101448.34
2018-07-14T12:24:59.746Z,101448.56
2018-07-14T12:27:28.549Z,101441.00
2018-07-14T12:29:57.529Z,101442.75
2018-07-14T12:32:26.524Z,101437.27
2018-07-14T12:34:55.524Z,101430.18
2018-07-14T12:37:24.220Z,101433.24
2018-07-14T12:39:52.938Z,101429.77
2018-07-14T12:42:24.952Z,101426.85
2018-07-14T12:44:53.948Z,101434.17
2018-07-14T12:47:22.658Z,101427.33
2018-07-14T12:49:51.390Z,101428.45
2018-07-14T12:52:20.546Z,101420.39
2018-07-14T12:54:49.463Z,101428.06
2018-07-14T12:57:18.115Z,101425.50
2018-07-14T12:59:46.909Z,101418.39
2018-07-14T13:02:15.926Z,101421.61
2018-07-14T13:04:45.891Z,101416.62
2018-07-14T13:07:14.780Z,101424.33
2018-07-14T13:09:43.440Z,101415.89
2018-07-14T13:12:15.557Z,101413.80
2018-07-14T13:14:44.508Z,101420.31
2018-07-14T13:17:13.429Z,101411.98
2018-07-14T13:19:42.184Z,101409.73
2018-07-14T13:22:13.688Z,101398.55
2018-07-14T13:24:42.339Z,101400.96
2018-07-14T13:27:11.113Z,101397.19
2018-07-14T13:29:40.262Z,101399.14
2018-07-14T13:32:08.970Z,101390.56
2018-07-14T13:34:37.875Z,101390.34
2018-07-14T13:37:06.926Z,101395.96
2018-07-14T13:39:36.235Z,101391.45
2018-07-14T13:42:05.356Z,101386.00
2018-07-14T13:44:34.126Z,101391.03
2018-07-14T13:47:03.057Z,101382.44
2018-07-14T13:49:32.389Z,101383.41
2018-07-14T13:52:01.238Z,101375.14
2018-07-14T13:54:30.310Z,101378.69
2018-07-14T13:56:59.301Z,101375.87
2018-07-14T13:59:28.275Z,101371.34
2018-07-14T14:01:57.279Z,101375.70
2018-07-14T14:04:26.001Z,101376.47
2018-07-14T14:06:55.060Z,101370.45
2018-07-14T14:09:24.706Z,101372.45
2018-07-14T14:11:54.097Z,101364.27
2018-07-14T14:14:23.136Z,101366.95
2018-07-14T14:16:52.332Z,101360.58
2018-07-14T14:19:21.180Z,101355.23
2018-07-14T14:21:50.030Z,101347.65
2018-07-14T14:24:18.714Z,101347.45
2018-07-14T14:26:47.966Z,101340.31
2018-07-14T14:29:16.752Z,101339.84
2018-07-14T14:31:47.004Z,101338.94
2018-07-14T14:34:15.798Z,101334.47
2018-07-14T14:36:45.402Z,101336.13
2018-07-14T14:39:14.051Z,101326.03
2018-07-14T14:41:43.655Z,101330.92
2018-07-14T14:44:12.362Z,101337.33
2018-07-14T14:46:41.432Z,101330.09
2018-07-14T14:49:10.116Z,101328.92
2018-07-14T14:51:38.877Z,101323.66
2018-07-14T14:54:07.598Z,101328.77
2018-07-14T14:56:36.583Z,101330.27
2018-07-14T14:59:05.625Z,101318.98
2018-07-14T15:01:34.627Z,101326.81
2018-07-14T15:04:03.385Z,101326.33
2018-07-14T15:06:32.913Z,101321.57
2018-07-14T15:09:01.707Z,101322.03
2018-07-14T15:11:32.261Z,101319.74
2018-07-14T15:14:00.978Z,101323.07
2018-07-14T15:16:30.653Z,101328.64
2018-07-14T15:18:59.960Z,101325.16
2018-07-14T15:21:29.098Z,101320.84
2018-07-14T15:23:58.086Z,101314.55
2018-07-14T15:26:27.014Z,101318.37
2018-07-14T15:28:56.587Z,101312.92
2018-07-14T15:31:25.244Z,101311.83
2018-07-14T15:33:53.896Z,101315.66
2018-07-14T15:36:22.615Z,101310.73
2018-07-14T15:38:51.671Z,101312.92
2018-07-14T15:41:20.357Z,101309.39
2018-07-14T15:43:49.150Z,101306.37
2018-07-14T15:46:17.829Z,101308.50
2018-07-14T15:48:46.549Z,101301.93
2018-07-14T15:51:15.242Z,101301.93
2018-07-14T15:53:44.119Z,101307.66
2018-07-14T15:56:12.814Z,101305.74
2018-07-14T15:58:41.621Z,101305.16
2018-07-14T16:01:10.310Z,101299.41
2018-07-14T16:03:39.881Z,101302.38
2018-07-14T16:06:09.285Z,101305.87
2018-07-14T16:08:38.059Z,101301.68
2018-07-14T16:11:07.742Z,101302.47
2018-07-14T16:13:36.687Z,101303.02
2018-07-14T16:16:06.175Z,101308.98
2018-07-14T16:18:34.990Z,101307.27
2018-07-14T16:21:04.226Z,101305.33
2018-07-14T16:23:32.944Z,101297.87
2018-07-14T16:26:01.869Z,101298.61
2018-07-14T16:28:30.596Z,101299.69
2018-07-14T16:30:59.305Z,101297.45
2018-07-14T16:33:28.401Z,101305.43
2018-07-14T16:35:57.176Z,101307.63
2018-07-14T16:38:25.808Z,101308.98
2018-07-14T16:40:54.771Z,101300.28
2018-07-14T16:43:23.798Z,101306.80
2018-07-14T16:45:52.574Z,101305.40
2018-07-14T16:48:21.601Z,101299.62
2018-07-14T16:50:50.386Z,101297.97
2018-07-14T16:53:19.427Z,101302.64
2018-07-14T16:55:48.237Z,101301.78
2018-07-14T16:58:17.247Z,101302.31
2018-07-14T17:00:46.099Z,101302.22
2018-07-14T17:03:14.860Z,101298.91
2018-07-14T17:05:43.677Z,101300.53
2018-07-14T17:08:12.668Z,101302.93
2018-07-14T17:10:43.140Z,101304.52
2018-07-14T17:13:12.405Z,101301.78
2018-07-14T17:15:41.396Z,101297.65
2018-07-14T17:18:11.151Z,101292.36
2018-07-14T17:20:39.885Z,101295.92
2018-07-14T17:23:13.497Z,101295.02
2018-07-14T17:25:42.252Z,101296.88
2018-07-14T17:28:11.006Z,101294.64
2018-07-14T17:30:40.012Z,101300.05
2018-07-14T17:33:08.719Z,101297.86
2018-07-14T17:35:37.579Z,101291.53
2018-07-14T17:38:06.635Z,101292.56
2018-07-14T17:40:35.337Z,101290.30
2018-07-14T17:43:04.104Z,101299.79
2018-07-14T17:45:34.151Z,101297.27
2018-07-14T17:48:02.865Z,101302.97
2018-07-14T17:50:31.882Z,101300.47
2018-07-14T17:53:00.920Z,101296.30
2018-07-14T17:55:29.685Z,101296.53
2018-07-14T17:57:58.834Z,101300.04
2018-07-14T18:00:27.544Z,101303.26
2018-07-14T18:02:56.825Z,101298.58
2018-07-14T18:05:25.576Z,101305.92
2018-07-14T18:07:54.349Z,101311.03
2018-07-14T18:10:23.261Z,101302.25
2018-07-14T18:12:51.935Z,101300.27
2018-07-14T18:15:20.649Z,101294.70
2018-07-14T18:17:49.601Z,101296.25
2018-07-14T18:20:18.731Z,101291.78
2018-07-14T18:22:47.490Z,101297.76
2018-07-14T18:25:16.262Z,101298.78
2018-07-14T18:27:44.950Z,101298.72
2018-07-14T18:30:13.683Z,101298.42
2018-07-14T18:32:42.656Z,101299.78
2018-07-14T18:35:11.408Z,101296.75
2018-07-14T18:37:40.511Z,101296.34
2018-07-14T18:40:09.189Z,101305.81
2018-07-14T18:42:37.977Z,101302.97
2018-07-14T18:45:06.700Z,101302.84
2018-07-14T18:47:35.854Z,101296.26
2018-07-14T18:50:04.760Z,101299.80
2018-07-14T18:52:34.425Z,101308.45
2018-07-14T18:55:03.279Z,101315.23
2018-07-14T18:57:31.965Z,101312.17
2018-07-14T19:00:00.996Z,101318.67
2018-07-14T19:02:29.812Z,101315.36
2018-07-14T19:04:59.085Z,101317.77
2018-07-14T19:07:28.086Z,101322.30
2018-07-14T19:09:56.756Z,101320.94
2018-07-14T19:12:25.799Z,101321.13
2018-07-14T19:14:54.516Z,101323.44
2018-07-14T19:17:23.912Z,101327.14
2018-07-14T19:19:52.734Z,101331.69
2018-07-14T19:22:21.970Z,101340.66
2018-07-14T19:24:50.752Z,101333.50
2018-07-14T19:27:19.502Z,101338.31
2018-07-14T19:29:48.527Z,101348.02
2018-07-14T19:32:17.232Z,101351.77
2018-07-14T19:34:45.861Z,101358.50
2018-07-14T19:37:16.348Z,101357.08
2018-07-14T19:39:45.437Z,101361.22
2018-07-14T19:42:14.258Z,101356.16
2018-07-14T19:44:43.307Z,101361.50
2018-07-14T19:47:12.021Z,101363.53
2018-07-14T19:49:41.093Z,101365.55
2018-07-14T19:52:09.783Z,101367.08
2018-07-14T19:54:38.753Z,101364.86
2018-07-14T19:57:07.891Z,101371.48
2018-07-14T19:59:36.627Z,101378.52
2018-07-14T20:02:05.641Z,101374.03
2018-07-14T20:04:34.269Z,101369.33
2018-07-14T20:07:02.907Z,101373.59
2018-07-14T20:09:31.619Z,101375.12
2018-07-14T20:12:00.847Z,101370.98
2018-07-14T20:14:30.196Z,101369.81
2018-07-14T20:16:58.887Z,101373.81
2018-07-14T20:19:27.553Z,101375.17
2018-07-14T20:21:57.334Z,101371.89
2018-07-14T20:24:26.567Z,101374.66
2018-07-14T20:26:55.272Z,101381.60
2018-07-14T20:29:23.977Z,101379.61
2018-07-14T20:31:52.689Z,101380.59
2018-07-14T20:34:21.358Z,101380.06
2018-07-14T20:36:50.451Z,101387.86
2018-07-14T20:39:19.498Z,101386.13
2018-07-14T20:41:48.326Z,101391.03
2018-07-14T20:44:17.344Z,101396.95
2018-07-14T20:46:46.138Z,101399.17
2018-07-14T20:49:14.846Z,101399.73
2018-07-14T20:51:44.316Z,101404.20
2018-07-14T20:54:13.036Z,101402.17
2018-07-14T20:56:41.831Z,101405.25
2018-07-14T20:59:10.563Z,101404.38
2018-07-14T21:01:39.791Z,101396.61
2018-07-14T21:04:08.786Z,101397.84
2018-07-14T21:06:37.527Z,101393.64
2018-07-14T21:09:07.052Z,101397.55
2018-07-14T21:11:35.942Z,101398.11
2018-07-14T21:14:04.714Z,101399.16
2018-07-14T21:16:33.758Z,101398.91
2018-07-14T21:19:02.895Z,101394.48
2018-07-14T21:21:31.679Z,101400.84
2018-07-14T21:24:00.472Z,101404.83
2018-07-14T21:26:29.380Z,101402.28
2018-07-14T21:28:58.610Z,101399.27
2018-07-14T21:31:27.340Z,101398.22
2018-07-14T21:33:56.166Z,101395.80
2018-07-14T21:36:24.989Z,101389.03
2018-07-14T21:38:54.079Z,101385.10
2018-07-14T21:41:23.124Z,101390.83
2018-07-14T21:43:51.812Z,101392.05
2018-07-14T21:46:20.622Z,101395.59
2018-07-14T21:48:49.468Z,101396.87
2018-07-14T21:51:18.326Z,101398.14
2018-07-14T21:53:48.315Z,101405.44
2018-07-14T21:56:17.028Z,101408.77
2018-07-14T21:58:45.936Z,101408.98
2018-07-14T22:01:20.017Z,101417.14
2018-07-14T22:03:49.454Z,101412.16
2018-07-14T22:06:18.198Z,101414.70
2018-07-14T22:08:46.941Z,101412.95
2018-07-14T22:11:15.921Z,101411.98
2018-07-14T22:13:45.225Z,101410.54
2018-07-14T22:16:14.177Z,101410.23
2018-07-14T22:18:42.931Z,101410.48
2018-07-14T22:21:11.742Z,101415.51
2018-07-14T22:23:40.720Z,101416.80
2018-07-14T22:26:14.598Z,101415.14
2018-07-14T22:28:44.223Z,101414.84
2018-07-14T22:31:13.213Z,101411.61
2018-07-14T22:33:44.223Z,101414.14
2018-07-14T22:36:12.956Z,101413.25
2018-07-14T22:38:42.658Z,101415.81
2018-07-14T22:41:12.415Z,101415.50
2018-07-14T22:43:41.203Z,101414.27
2018-07-14T22:46:12.517Z,101407.35
2018-07-14T22:48:42.073Z,101406.95
2018-07-14T22:51:12.139Z,101408.25
2018-07-14T22:53:40.855Z,101414.71
2018-07-14T22:56:09.454Z,101403.79
2018-07-14T22:58:38.816Z,101415.91
2018-07-14T23:01:07.660Z,101406.87
2018-07-14T23:03:36.448Z,101411.14
2018-07-14T23:06:06.772Z,101408.06
2018-07-14T23:08:36.395Z,101405.58
2018-07-14T23:11:06.877Z,101406.52
2018-07-14T23:13:36.624Z,101407.66
2018-07-14T23:16:06.053Z,101403.34
2018-07-14T23:18:35.080Z,101396.31
2018-07-14T23:21:03.731Z,101395.27
2018-07-14T23:23:32.831Z,101398.39
2018-07-14T23:26:01.510Z,101395.44
2018-07-14T23:28:30.191Z,101401.83
2018-07-14T23:30:58.835Z,101402.30
2018-07-14T23:33:27.479Z,101404.54
2018-07-14T23:35:56.917Z,101401.52
2018-07-14T23:38:25.860Z,101406.63
2018-07-14T23:40:54.559Z,101399.65
2018-07-14T23:43:23.213Z,101396.84
2018-07-14T23:45:51.899Z,101396.99
2018-07-14T23:48:21.056Z,101395.47
2018-07-14T23:50:49.691Z,101395.78
2018-07-14T23:53:18.392Z,101396.37
2018-07-14T23:55:47.014Z,101398.08
2018-07-14T23:58:15.698Z,101395.16
